sensor_id;sensor_type;location;lat;lon;timestamp;temperature;humidity
15554;DHT22;7878;44.632;10.942;2023-07-13T00:02:03;29.60;99.90
15554;DHT22;7878;44.632;10.942;2023-07-13T00:04:28;29.60;99.90
15554;DHT22;7878;44.632;10.942;2023-07-13T00:06:54;29.60;99.90
15554;DHT22;7878;44.632;10.942;2023-07-13T00:09:20;29.60;99.90
15554;DHT22;7878;44.632;10.942;2023-07-13T00:11:51;29.50;99.90
15554;DHT22;7878;44.632;10.942;2023-07-13T00:14:17;29.60;99.90
15554;DHT22;7878;44.632;10.942;2023-07-13T00:16:43;29.60;99.90
15554;DHT22;7878;44.632;10.942;2023-07-13T00:19:11;29.60;99.90
15554;DHT22;7878;44.632;10.942;2023-07-13T00:21:37;29.50;99.90
15554;DHT22;7878;44.632;10.942;2023-07-13T00:24:04;29.50;99.90
15554;DHT22;7878;44.632;10.942;2023-07-13T00:26:29;29.50;99.90
15554;DHT22;7878;44.632;10.942;2023-07-13T00:28:56;29.50;99.90
15554;DHT22;7878;44.632;10.942;2023-07-13T00:31:22;29.60;99.90
15554;DHT22;7878;44.632;10.942;2023-07-13T00:33:47;29.60;99.90
15554;DHT22;7878;44.632;10.942;2023-07-13T00:36:13;29.60;99.90
15554;DHT22;7878;44.632;10.942;2023-07-13T00:38:40;29.60;99.90
15554;DHT22;7878;44.632;10.942;2023-07-13T00:41:06;29.60;99.90
15554;DHT22;7878;44.632;10.942;2023-07-13T00:43:32;29.60;99.90
15554;DHT22;7878;44.632;10.942;2023-07-13T00:46:24;29.70;99.90
15554;DHT22;7878;44.632;10.942;2023-07-13T00:48:50;29.70;99.90
15554;DHT22;7878;44.632;10.942;2023-07-13T00:51:21;29.60;99.90
15554;DHT22;7878;44.632;10.942;2023-07-13T00:53:47;29.60;99.90
15554;DHT22;7878;44.632;10.942;2023-07-13T00:56:13;29.60;99.90
15554;DHT22;7878;44.632;10.942;2023-07-13T00:58:40;29.60;99.90
15554;DHT22;7878;44.632;10.942;2023-07-13T01:01:05;29.60;99.90
15554;DHT22;7878;44.632;10.942;2023-07-13T01:03:31;29.60;99.90
15554;DHT22;7878;44.632;10.942;2023-07-13T01:05:57;29.60;99.90
15554;DHT22;7878;44.632;10.942;2023-07-13T01:08:23;29.60;99.90
15554;DHT22;7878;44.632;10.942;2023-07-13T01:10:56;29.50;99.90
15554;DHT22;7878;44.632;10.942;2023-07-13T01:13:24;29.40;99.90
15554;DHT22;7878;44.632;10.942;2023-07-13T01:15:51;29.30;99.90
15554;DHT22;7878;44.632;10.942;2023-07-13T01:18:22;29.20;99.90
15554;DHT22;7878;44.632;10.942;2023-07-13T01:21:07;29.20;99.90
15554;DHT22;7878;44.632;10.942;2023-07-13T01:23:33;29.30;99.90
15554;DHT22;7878;44.632;10.942;2023-07-13T01:25:59;29.20;99.90
15554;DHT22;7878;44.632;10.942;2023-07-13T01:28:26;29.20;99.90
15554;DHT22;7878;44.632;10.942;2023-07-13T01:30:54;29.20;99.90
15554;DHT22;7878;44.632;10.942;2023-07-13T01:33:20;29.10;99.90
15554;DHT22;7878;44.632;10.942;2023-07-13T01:35:46;29.10;99.90
15554;DHT22;7878;44.632;10.942;2023-07-13T01:38:14;29.00;99.90
15554;DHT22;7878;44.632;10.942;2023-07-13T01:40:40;29.00;99.90
15554;DHT22;7878;44.632;10.942;2023-07-13T01:43:06;28.90;99.90
15554;DHT22;7878;44.632;10.942;2023-07-13T01:45:32;28.90;99.90
15554;DHT22;7878;44.632;10.942;2023-07-13T01:47:57;28.90;99.90
15554;DHT22;7878;44.632;10.942;2023-07-13T01:50:24;28.90;99.90
15554;DHT22;7878;44.632;10.942;2023-07-13T01:52:50;28.90;99.90
15554;DHT22;7878;44.632;10.942;2023-07-13T01:55:16;28.80;99.90
15554;DHT22;7878;44.632;10.942;2023-07-13T01:57:42;28.70;99.90
15554;DHT22;7878;44.632;10.942;2023-07-13T02:00:09;28.80;99.90
15554;DHT22;7878;44.632;10.942;2023-07-13T02:02:35;28.80;99.90
15554;DHT22;7878;44.632;10.942;2023-07-13T02:05:01;28.70;99.90
15554;DHT22;7878;44.632;10.942;2023-07-13T02:07:27;28.60;99.90
15554;DHT22;7878;44.632;10.942;2023-07-13T02:09:52;28.60;99.90
15554;DHT22;7878;44.632;10.942;2023-07-13T02:12:19;28.60;99.90
15554;DHT22;7878;44.632;10.942;2023-07-13T02:14:44;28.50;99.90
15554;DHT22;7878;44.632;10.942;2023-07-13T02:17:10;28.50;99.90
15554;DHT22;7878;44.632;10.942;2023-07-13T02:19:36;28.40;99.90
15554;DHT22;7878;44.632;10.942;2023-07-13T02:22:02;28.40;99.90
15554;DHT22;7878;44.632;10.942;2023-07-13T02:24:28;28.50;99.90
15554;DHT22;7878;44.632;10.942;2023-07-13T02:26:54;28.50;99.90
15554;DHT22;7878;44.632;10.942;2023-07-13T02:29:19;28.50;99.90
15554;DHT22;7878;44.632;10.942;2023-07-13T02:31:45;28.50;99.90
15554;DHT22;7878;44.632;10.942;2023-07-13T02:34:11;28.50;99.90
15554;DHT22;7878;44.632;10.942;2023-07-13T02:36:36;28.40;99.90
15554;DHT22;7878;44.632;10.942;2023-07-13T02:39:04;28.30;99.90
15554;DHT22;7878;44.632;10.942;2023-07-13T02:41:30;28.30;99.90
15554;DHT22;7878;44.632;10.942;2023-07-13T02:43:59;28.40;99.90
15554;DHT22;7878;44.632;10.942;2023-07-13T02:46:33;28.50;99.90
15554;DHT22;7878;44.632;10.942;2023-07-13T02:48:59;28.60;99.90
15554;DHT22;7878;44.632;10.942;2023-07-13T02:51:25;28.60;99.90
15554;DHT22;7878;44.632;10.942;2023-07-13T02:53:51;28.60;99.90
15554;DHT22;7878;44.632;10.942;2023-07-13T02:56:23;28.60;99.90
15554;DHT22;7878;44.632;10.942;2023-07-13T02:58:49;28.60;99.90
15554;DHT22;7878;44.632;10.942;2023-07-13T03:01:15;28.60;99.90
15554;DHT22;7878;44.632;10.942;2023-07-13T03:03:45;28.60;99.90
15554;DHT22;7878;44.632;10.942;2023-07-13T03:06:11;28.60;99.90
15554;DHT22;7878;44.632;10.942;2023-07-13T03:08:37;28.70;99.90
15554;DHT22;7878;44.632;10.942;2023-07-13T03:11:05;28.70;99.90
15554;DHT22;7878;44.632;10.942;2023-07-13T03:13:31;28.60;99.90
15554;DHT22;7878;44.632;10.942;2023-07-13T03:15:57;28.60;99.90
15554;DHT22;7878;44.632;10.942;2023-07-13T03:18:23;28.60;99.90
15554;DHT22;7878;44.632;10.942;2023-07-13T03:20:52;28.70;99.90
15554;DHT22;7878;44.632;10.942;2023-07-13T03:23:18;28.60;99.90
15554;DHT22;7878;44.632;10.942;2023-07-13T03:25:44;28.60;99.90
15554;DHT22;7878;44.632;10.942;2023-07-13T03:28:14;28.50;99.90
15554;DHT22;7878;44.632;10.942;2023-07-13T03:30:40;28.60;99.90
15554;DHT22;7878;44.632;10.942;2023-07-13T03:33:06;28.60;99.90
15554;DHT22;7878;44.632;10.942;2023-07-13T03:35:32;28.50;99.90
15554;DHT22;7878;44.632;10.942;2023-07-13T03:37:59;28.50;99.90
15554;DHT22;7878;44.632;10.942;2023-07-13T03:40:25;28.50;99.90
15554;DHT22;7878;44.632;10.942;2023-07-13T03:42:52;28.50;99.90
15554;DHT22;7878;44.632;10.942;2023-07-13T03:45:18;28.60;99.90
15554;DHT22;7878;44.632;10.942;2023-07-13T03:47:44;28.60;99.90
15554;DHT22;7878;44.632;10.942;2023-07-13T03:50:10;28.50;99.90
15554;DHT22;7878;44.632;10.942;2023-07-13T03:52:36;28.50;99.90
15554;DHT22;7878;44.632;10.942;2023-07-13T03:55:02;28.50;99.90
15554;DHT22;7878;44.632;10.942;2023-07-13T03:57:27;28.50;99.90
15554;DHT22;7878;44.632;10.942;2023-07-13T03:59:53;28.50;99.90
15554;DHT22;7878;44.632;10.942;2023-07-13T04:02:19;28.50;99.90
15554;DHT22;7878;44.632;10.942;2023-07-13T04:04:44;28.50;99.90
15554;DHT22;7878;44.632;10.942;2023-07-13T04:07:10;28.50;99.90
15554;DHT22;7878;44.632;10.942;2023-07-13T04:09:36;28.50;99.90
15554;DHT22;7878;44.632;10.942;2023-07-13T04:12:02;28.50;99.90
15554;DHT22;7878;44.632;10.942;2023-07-13T04:14:28;28.50;99.90
15554;DHT22;7878;44.632;10.942;2023-07-13T04:16:53;28.50;99.90
15554;DHT22;7878;44.632;10.942;2023-07-13T04:19:20;28.50;99.90
15554;DHT22;7878;44.632;10.942;2023-07-13T04:21:46;28.40;99.90
15554;DHT22;7878;44.632;10.942;2023-07-13T04:24:12;28.30;99.90
15554;DHT22;7878;44.632;10.942;2023-07-13T04:26:38;28.30;99.90
15554;DHT22;7878;44.632;10.942;2023-07-13T04:29:04;28.40;99.90
15554;DHT22;7878;44.632;10.942;2023-07-13T04:31:31;28.40;99.90
15554;DHT22;7878;44.632;10.942;2023-07-13T04:33:57;28.50;99.90
15554;DHT22;7878;44.632;10.942;2023-07-13T04:36:23;28.50;99.90
15554;DHT22;7878;44.632;10.942;2023-07-13T04:38:52;28.50;99.90
15554;DHT22;7878;44.632;10.942;2023-07-13T04:41:20;28.50;99.90
15554;DHT22;7878;44.632;10.942;2023-07-13T04:43:46;28.50;99.90
15554;DHT22;7878;44.632;10.942;2023-07-13T04:46:17;28.50;99.90
15554;DHT22;7878;44.632;10.942;2023-07-13T04:48:44;28.50;99.90
15554;DHT22;7878;44.632;10.942;2023-07-13T04:51:09;28.50;99.90
15554;DHT22;7878;44.632;10.942;2023-07-13T04:53:35;28.40;99.90
15554;DHT22;7878;44.632;10.942;2023-07-13T04:56:02;28.20;99.90
15554;DHT22;7878;44.632;10.942;2023-07-13T04:58:28;28.10;99.90
15554;DHT22;7878;44.632;10.942;2023-07-13T05:00:59;28.00;99.90
15554;DHT22;7878;44.632;10.942;2023-07-13T05:03:25;28.00;99.90
15554;DHT22;7878;44.632;10.942;2023-07-13T05:06:03;28.00;99.90
15554;DHT22;7878;44.632;10.942;2023-07-13T05:08:29;27.90;99.90
15554;DHT22;7878;44.632;10.942;2023-07-13T05:10:55;27.90;99.90
15554;DHT22;7878;44.632;10.942;2023-07-13T05:13:21;27.80;99.90
15554;DHT22;7878;44.632;10.942;2023-07-13T05:15:56;27.60;99.90
15554;DHT22;7878;44.632;10.942;2023-07-13T05:18:22;27.50;99.90
15554;DHT22;7878;44.632;10.942;2023-07-13T05:20:56;27.50;99.90
15554;DHT22;7878;44.632;10.942;2023-07-13T05:23:22;27.50;99.90
15554;DHT22;7878;44.632;10.942;2023-07-13T05:25:48;27.50;99.90
15554;DHT22;7878;44.632;10.942;2023-07-13T05:28:14;27.60;99.90
15554;DHT22;7878;44.632;10.942;2023-07-13T05:30:39;27.60;99.90
15554;DHT22;7878;44.632;10.942;2023-07-13T05:33:05;27.60;99.90
15554;DHT22;7878;44.632;10.942;2023-07-13T05:35:30;27.60;99.90
15554;DHT22;7878;44.632;10.942;2023-07-13T05:37:56;27.60;99.90
15554;DHT22;7878;44.632;10.942;2023-07-13T05:40:22;27.70;99.90
15554;DHT22;7878;44.632;10.942;2023-07-13T05:42:47;27.70;99.90
15554;DHT22;7878;44.632;10.942;2023-07-13T05:45:13;27.70;99.90
15554;DHT22;7878;44.632;10.942;2023-07-13T05:47:39;27.80;99.90
15554;DHT22;7878;44.632;10.942;2023-07-13T05:50:05;27.90;99.90
15554;DHT22;7878;44.632;10.942;2023-07-13T05:52:30;27.90;99.90
15554;DHT22;7878;44.632;10.942;2023-07-13T05:54:56;27.90;99.90
15554;DHT22;7878;44.632;10.942;2023-07-13T05:57:22;27.90;99.90
15554;DHT22;7878;44.632;10.942;2023-07-13T05:59:47;27.90;99.90
15554;DHT22;7878;44.632;10.942;2023-07-13T06:02:14;27.90;99.90
15554;DHT22;7878;44.632;10.942;2023-07-13T06:04:39;27.90;99.90
15554;DHT22;7878;44.632;10.942;2023-07-13T06:07:05;28.00;99.90
15554;DHT22;7878;44.632;10.942;2023-07-13T06:09:31;28.00;99.90
15554;DHT22;7878;44.632;10.942;2023-07-13T06:11:56;28.00;99.90
15554;DHT22;7878;44.632;10.942;2023-07-13T06:14:22;27.90;99.90
15554;DHT22;7878;44.632;10.942;2023-07-13T06:16:48;27.90;99.90
15554;DHT22;7878;44.632;10.942;2023-07-13T06:19:13;27.90;99.90
15554;DHT22;7878;44.632;10.942;2023-07-13T06:21:39;27.90;99.90
15554;DHT22;7878;44.632;10.942;2023-07-13T06:24:05;28.00;99.90
15554;DHT22;7878;44.632;10.942;2023-07-13T06:26:30;28.10;99.90
15554;DHT22;7878;44.632;10.942;2023-07-13T06:28:57;28.10;99.90
15554;DHT22;7878;44.632;10.942;2023-07-13T06:31:23;28.10;99.90
15554;DHT22;7878;44.632;10.942;2023-07-13T06:33:48;28.10;99.90
15554;DHT22;7878;44.632;10.942;2023-07-13T06:36:14;28.10;99.90
15554;DHT22;7878;44.632;10.942;2023-07-13T06:38:40;28.10;99.90
15554;DHT22;7878;44.632;10.942;2023-07-13T06:41:07;28.20;99.90
15554;DHT22;7878;44.632;10.942;2023-07-13T06:43:33;28.30;99.90
15554;DHT22;7878;44.632;10.942;2023-07-13T06:45:59;28.30;99.90
15554;DHT22;7878;44.632;10.942;2023-07-13T06:48:25;28.30;99.90
15554;DHT22;7878;44.632;10.942;2023-07-13T06:50:51;28.30;99.90
15554;DHT22;7878;44.632;10.942;2023-07-13T06:53:18;28.40;99.90
15554;DHT22;7878;44.632;10.942;2023-07-13T06:55:44;28.30;99.90
15554;DHT22;7878;44.632;10.942;2023-07-13T06:58:10;28.30;99.90
15554;DHT22;7878;44.632;10.942;2023-07-13T07:00:36;28.40;99.90
15554;DHT22;7878;44.632;10.942;2023-07-13T07:03:02;28.40;99.90
15554;DHT22;7878;44.632;10.942;2023-07-13T07:05:28;28.50;99.90
15554;DHT22;7878;44.632;10.942;2023-07-13T07:07:55;28.50;99.90
15554;DHT22;7878;44.632;10.942;2023-07-13T07:10:21;28.60;99.90
15554;DHT22;7878;44.632;10.942;2023-07-13T07:12:47;28.60;99.90
15554;DHT22;7878;44.632;10.942;2023-07-13T07:15:13;28.60;99.90
15554;DHT22;7878;44.632;10.942;2023-07-13T07:17:39;28.50;99.90
15554;DHT22;7878;44.632;10.942;2023-07-13T07:20:05;28.40;99.90
15554;DHT22;7878;44.632;10.942;2023-07-13T07:22:31;28.40;99.90
15554;DHT22;7878;44.632;10.942;2023-07-13T07:24:57;28.40;99.90
15554;DHT22;7878;44.632;10.942;2023-07-13T07:27:23;28.50;99.90
15554;DHT22;7878;44.632;10.942;2023-07-13T07:29:50;28.50;99.90
15554;DHT22;7878;44.632;10.942;2023-07-13T07:32:16;28.50;99.90
15554;DHT22;7878;44.632;10.942;2023-07-13T07:34:42;28.50;99.90
15554;DHT22;7878;44.632;10.942;2023-07-13T07:37:11;28.50;99.90
15554;DHT22;7878;44.632;10.942;2023-07-13T07:39:37;28.40;99.90
15554;DHT22;7878;44.632;10.942;2023-07-13T07:42:03;28.40;99.90
15554;DHT22;7878;44.632;10.942;2023-07-13T07:44:31;28.50;99.90
15554;DHT22;7878;44.632;10.942;2023-07-13T07:46:56;28.50;99.90
15554;DHT22;7878;44.632;10.942;2023-07-13T07:49:22;28.50;99.90
15554;DHT22;7878;44.632;10.942;2023-07-13T07:51:48;28.50;99.90
15554;DHT22;7878;44.632;10.942;2023-07-13T07:54:13;28.40;99.90
15554;DHT22;7878;44.632;10.942;2023-07-13T07:56:40;28.50;99.90
15554;DHT22;7878;44.632;10.942;2023-07-13T07:59:06;28.40;99.90
15554;DHT22;7878;44.632;10.942;2023-07-13T08:01:31;28.30;99.90
15554;DHT22;7878;44.632;10.942;2023-07-13T08:03:57;28.10;99.90
15554;DHT22;7878;44.632;10.942;2023-07-13T08:06:23;28.20;99.90
15554;DHT22;7878;44.632;10.942;2023-07-13T08:08:49;28.20;99.90
15554;DHT22;7878;44.632;10.942;2023-07-13T08:11:17;28.10;99.90
15554;DHT22;7878;44.632;10.942;2023-07-13T08:13:43;28.20;99.90
15554;DHT22;7878;44.632;10.942;2023-07-13T08:16:09;28.10;99.90
15554;DHT22;7878;44.632;10.942;2023-07-13T08:18:35;28.00;99.90
15554;DHT22;7878;44.632;10.942;2023-07-13T08:21:07;27.90;99.90
15554;DHT22;7878;44.632;10.942;2023-07-13T08:23:34;27.90;99.90
15554;DHT22;7878;44.632;10.942;2023-07-13T08:26:00;27.70;99.90
15554;DHT22;7878;44.632;10.942;2023-07-13T08:28:30;27.70;99.90
15554;DHT22;7878;44.632;10.942;2023-07-13T08:31:00;27.80;99.90
15554;DHT22;7878;44.632;10.942;2023-07-13T08:33:26;27.80;99.90
15554;DHT22;7878;44.632;10.942;2023-07-13T08:35:52;27.80;99.90
15554;DHT22;7878;44.632;10.942;2023-07-13T08:38:18;27.70;99.90
15554;DHT22;7878;44.632;10.942;2023-07-13T08:40:53;27.80;99.90
15554;DHT22;7878;44.632;10.942;2023-07-13T08:43:25;27.90;99.90
15554;DHT22;7878;44.632;10.942;2023-07-13T08:46:26;27.90;99.90
15554;DHT22;7878;44.632;10.942;2023-07-13T08:49:00;28.00;99.90
15554;DHT22;7878;44.632;10.942;2023-07-13T08:54:08;28.00;99.90
15554;DHT22;7878;44.632;10.942;2023-07-13T08:56:36;28.00;99.90
15554;DHT22;7878;44.632;10.942;2023-07-13T08:59:14;28.00;99.90
15554;DHT22;7878;44.632;10.942;2023-07-13T09:04:50;27.90;99.90
15554;DHT22;7878;44.632;10.942;2023-07-13T09:10:30;27.80;99.90
15554;DHT22;7878;44.632;10.942;2023-07-13T09:15:44;27.70;99.90
15554;DHT22;7878;44.632;10.942;2023-07-13T09:18:13;27.70;99.90
15554;DHT22;7878;44.632;10.942;2023-07-13T09:20:43;27.60;99.90
15554;DHT22;7878;44.632;10.942;2023-07-13T09:23:16;27.50;99.90
15554;DHT22;7878;44.632;10.942;2023-07-13T09:25:47;27.60;99.90
15554;DHT22;7878;44.632;10.942;2023-07-13T09:28:27;27.60;99.90
15554;DHT22;7878;44.632;10.942;2023-07-13T09:31:04;27.60;99.90
15554;DHT22;7878;44.632;10.942;2023-07-13T09:33:31;27.50;99.90
15554;DHT22;7878;44.632;10.942;2023-07-13T09:35:58;27.50;99.90
15554;DHT22;7878;44.632;10.942;2023-07-13T09:38:28;27.50;99.90
15554;DHT22;7878;44.632;10.942;2023-07-13T09:41:13;27.50;99.90
15554;DHT22;7878;44.632;10.942;2023-07-13T09:46:32;27.40;99.90
15554;DHT22;7878;44.632;10.942;2023-07-13T09:48:57;27.40;99.90
15554;DHT22;7878;44.632;10.942;2023-07-13T09:51:23;27.50;99.90
15554;DHT22;7878;44.632;10.942;2023-07-13T09:53:49;27.50;99.90
15554;DHT22;7878;44.632;10.942;2023-07-13T09:56:24;27.50;99.90
15554;DHT22;7878;44.632;10.942;2023-07-13T09:58:51;27.50;99.90
15554;DHT22;7878;44.632;10.942;2023-07-13T10:01:32;27.60;99.90
15554;DHT22;7878;44.632;10.942;2023-07-13T10:03:59;27.60;99.90
15554;DHT22;7878;44.632;10.942;2023-07-13T10:06:24;27.60;99.90
15554;DHT22;7878;44.632;10.942;2023-07-13T10:08:52;27.80;99.90
15554;DHT22;7878;44.632;10.942;2023-07-13T10:11:21;27.90;99.90
15554;DHT22;7878;44.632;10.942;2023-07-13T10:16:23;28.20;99.90
15554;DHT22;7878;44.632;10.942;2023-07-13T10:18:55;28.40;99.90
15554;DHT22;7878;44.632;10.942;2023-07-13T10:21:26;28.30;99.90
15554;DHT22;7878;44.632;10.942;2023-07-13T10:23:57;28.30;99.90
15554;DHT22;7878;44.632;10.942;2023-07-13T10:26:31;28.20;99.90
15554;DHT22;7878;44.632;10.942;2023-07-13T10:29:01;28.30;99.90
15554;DHT22;7878;44.632;10.942;2023-07-13T10:31:30;28.40;99.90
15554;DHT22;7878;44.632;10.942;2023-07-13T10:33:56;28.40;99.90
15554;DHT22;7878;44.632;10.942;2023-07-13T10:36:43;28.50;99.90
15554;DHT22;7878;44.632;10.942;2023-07-13T10:39:23;28.60;99.90
15554;DHT22;7878;44.632;10.942;2023-07-13T10:41:54;28.70;99.90
15554;DHT22;7878;44.632;10.942;2023-07-13T10:57:17;28.70;99.90
15554;DHT22;7878;44.632;10.942;2023-07-13T11:02:28;28.80;99.90
15554;DHT22;7878;44.632;10.942;2023-07-13T11:04:55;28.80;99.90
15554;DHT22;7878;44.632;10.942;2023-07-13T11:07:26;28.80;99.90
15554;DHT22;7878;44.632;10.942;2023-07-13T11:09:58;28.90;99.90
15554;DHT22;7878;44.632;10.942;2023-07-13T11:23:31;29.50;99.90
15554;DHT22;7878;44.632;10.942;2023-07-13T11:25:34;29.70;99.90
15554;DHT22;7878;44.632;10.942;2023-07-13T11:28:21;29.70;99.90
15554;DHT22;7878;44.632;10.942;2023-07-13T11:36:12;30.00;99.90
15554;DHT22;7878;44.632;10.942;2023-07-13T11:41:13;29.90;99.90
15554;DHT22;7878;44.632;10.942;2023-07-13T11:43:40;29.80;99.90
15554;DHT22;7878;44.632;10.942;2023-07-13T11:46:23;29.90;99.90
15554;DHT22;7878;44.632;10.942;2023-07-13T11:48:50;30.10;99.90
15554;DHT22;7878;44.632;10.942;2023-07-13T11:51:22;30.20;99.90
15554;DHT22;7878;44.632;10.942;2023-07-13T11:53:50;30.10;99.90
15554;DHT22;7878;44.632;10.942;2023-07-13T11:56:17;30.10;99.90
15554;DHT22;7878;44.632;10.942;2023-07-13T11:58:43;30.10;99.90
15554;DHT22;7878;44.632;10.942;2023-07-13T12:01:22;30.20;99.90
15554;DHT22;7878;44.632;10.942;2023-07-13T12:03:49;30.40;99.90
15554;DHT22;7878;44.632;10.942;2023-07-13T12:06:26;30.30;99.90
15554;DHT22;7878;44.632;10.942;2023-07-13T12:08:56;30.50;99.90
15554;DHT22;7878;44.632;10.942;2023-07-13T12:11:22;30.40;99.90
15554;DHT22;7878;44.632;10.942;2023-07-13T12:13:48;30.50;99.90
15554;DHT22;7878;44.632;10.942;2023-07-13T12:16:28;30.50;99.90
15554;DHT22;7878;44.632;10.942;2023-07-13T12:18:56;30.70;99.90
15554;DHT22;7878;44.632;10.942;2023-07-13T12:23:55;30.60;99.90
15554;DHT22;7878;44.632;10.942;2023-07-13T12:26:21;30.60;99.90
15554;DHT22;7878;44.632;10.942;2023-07-13T12:28:51;30.70;99.90
15554;DHT22;7878;44.632;10.942;2023-07-13T12:31:42;30.60;99.90
15554;DHT22;7878;44.632;10.942;2023-07-13T12:34:15;30.60;99.90
15554;DHT22;7878;44.632;10.942;2023-07-13T12:37:02;30.50;99.90
15554;DHT22;7878;44.632;10.942;2023-07-13T12:39:37;30.50;99.90
15554;DHT22;7878;44.632;10.942;2023-07-13T12:44:53;30.70;99.90
15554;DHT22;7878;44.632;10.942;2023-07-13T12:47:20;30.70;99.90
15554;DHT22;7878;44.632;10.942;2023-07-13T12:49:53;30.70;99.90
15554;DHT22;7878;44.632;10.942;2023-07-13T12:52:27;30.70;99.90
15554;DHT22;7878;44.632;10.942;2023-07-13T12:54:58;30.70;99.90
15554;DHT22;7878;44.632;10.942;2023-07-13T12:57:25;30.70;99.90
15554;DHT22;7878;44.632;10.942;2023-07-13T12:59:55;30.70;99.90
15554;DHT22;7878;44.632;10.942;2023-07-13T13:02:30;30.60;99.90
15554;DHT22;7878;44.632;10.942;2023-07-13T13:04:57;30.50;99.90
15554;DHT22;7878;44.632;10.942;2023-07-13T13:07:24;30.50;99.90
15554;DHT22;7878;44.632;10.942;2023-07-13T13:09:50;30.50;99.90
15554;DHT22;7878;44.632;10.942;2023-07-13T13:12:16;30.60;99.90
15554;DHT22;7878;44.632;10.942;2023-07-13T13:14:42;30.60;99.90
15554;DHT22;7878;44.632;10.942;2023-07-13T13:17:28;30.60;99.90
15554;DHT22;7878;44.632;10.942;2023-07-13T13:19:54;30.60;99.90
15554;DHT22;7878;44.632;10.942;2023-07-13T13:22:21;30.60;99.90
15554;DHT22;7878;44.632;10.942;2023-07-13T13:24:47;30.60;99.90
15554;DHT22;7878;44.632;10.942;2023-07-13T13:27:17;30.70;99.90
15554;DHT22;7878;44.632;10.942;2023-07-13T13:29:44;30.60;99.90
15554;DHT22;7878;44.632;10.942;2023-07-13T13:32:14;30.70;99.90
15554;DHT22;7878;44.632;10.942;2023-07-13T13:34:40;30.70;99.90
15554;DHT22;7878;44.632;10.942;2023-07-13T13:37:24;30.70;99.90
15554;DHT22;7878;44.632;10.942;2023-07-13T13:39:51;30.80;99.90
15554;DHT22;7878;44.632;10.942;2023-07-13T13:42:19;30.80;99.90
15554;DHT22;7878;44.632;10.942;2023-07-13T13:44:46;30.80;99.90
15554;DHT22;7878;44.632;10.942;2023-07-13T13:47:31;30.90;99.90
15554;DHT22;7878;44.632;10.942;2023-07-13T13:49:58;30.80;99.90
15554;DHT22;7878;44.632;10.942;2023-07-13T13:52:24;30.90;99.90
15554;DHT22;7878;44.632;10.942;2023-07-13T13:54:51;30.90;99.90
15554;DHT22;7878;44.632;10.942;2023-07-13T13:57:22;31.00;99.90
15554;DHT22;7878;44.632;10.942;2023-07-13T13:59:48;31.00;99.90
15554;DHT22;7878;44.632;10.942;2023-07-13T14:02:26;31.00;99.90
15554;DHT22;7878;44.632;10.942;2023-07-13T14:04:59;31.00;99.90
15554;DHT22;7878;44.632;10.942;2023-07-13T14:07:25;31.00;99.90
15554;DHT22;7878;44.632;10.942;2023-07-13T14:09:57;31.10;99.90
15554;DHT22;7878;44.632;10.942;2023-07-13T14:12:23;31.10;99.90
15554;DHT22;7878;44.632;10.942;2023-07-13T14:14:52;31.10;99.90
15554;DHT22;7878;44.632;10.942;2023-07-13T14:17:27;31.10;99.90
15554;DHT22;7878;44.632;10.942;2023-07-13T14:19:54;31.10;99.90
15554;DHT22;7878;44.632;10.942;2023-07-13T14:22:26;31.00;99.90
15554;DHT22;7878;44.632;10.942;2023-07-13T14:24:53;31.10;99.90
15554;DHT22;7878;44.632;10.942;2023-07-13T14:27:20;31.10;99.90
15554;DHT22;7878;44.632;10.942;2023-07-13T14:29:45;31.10;99.90
15554;DHT22;7878;44.632;10.942;2023-07-13T14:32:12;31.10;99.90
15554;DHT22;7878;44.632;10.942;2023-07-13T14:34:38;31.10;99.90
15554;DHT22;7878;44.632;10.942;2023-07-13T14:37:04;31.10;99.90
15554;DHT22;7878;44.632;10.942;2023-07-13T14:39:31;31.10;99.90
15554;DHT22;7878;44.632;10.942;2023-07-13T14:41:57;31.10;99.90
15554;DHT22;7878;44.632;10.942;2023-07-13T14:44:27;31.10;99.90
15554;DHT22;7878;44.632;10.942;2023-07-13T14:46:55;31.10;99.90
15554;DHT22;7878;44.632;10.942;2023-07-13T14:49:30;31.10;99.90
15554;DHT22;7878;44.632;10.942;2023-07-13T14:51:57;31.10;99.90
15554;DHT22;7878;44.632;10.942;2023-07-13T14:54:24;31.10;99.90
15554;DHT22;7878;44.632;10.942;2023-07-13T14:56:49;31.10;99.90
15554;DHT22;7878;44.632;10.942;2023-07-13T14:59:16;31.00;99.90
15554;DHT22;7878;44.632;10.942;2023-07-13T15:01:45;31.00;99.90
15554;DHT22;7878;44.632;10.942;2023-07-13T15:04:11;31.00;99.90
15554;DHT22;7878;44.632;10.942;2023-07-13T15:07:12;31.00;99.90
15554;DHT22;7878;44.632;10.942;2023-07-13T15:09:41;31.00;99.90
15554;DHT22;7878;44.632;10.942;2023-07-13T15:12:07;31.00;99.90
15554;DHT22;7878;44.632;10.942;2023-07-13T15:14:33;31.10;99.90
15554;DHT22;7878;44.632;10.942;2023-07-13T15:16:58;31.10;99.90
15554;DHT22;7878;44.632;10.942;2023-07-13T15:19:25;31.00;99.90
15554;DHT22;7878;44.632;10.942;2023-07-13T15:21:52;31.00;99.90
15554;DHT22;7878;44.632;10.942;2023-07-13T15:24:20;31.10;99.90
15554;DHT22;7878;44.632;10.942;2023-07-13T15:26:46;31.20;99.90
15554;DHT22;7878;44.632;10.942;2023-07-13T15:29:17;31.20;99.90
15554;DHT22;7878;44.632;10.942;2023-07-13T15:31:43;31.30;99.90
15554;DHT22;7878;44.632;10.942;2023-07-13T15:34:18;31.40;99.90
15554;DHT22;7878;44.632;10.942;2023-07-13T15:36:46;31.40;99.90
15554;DHT22;7878;44.632;10.942;2023-07-13T15:39:16;31.40;99.90
15554;DHT22;7878;44.632;10.942;2023-07-13T15:41:43;31.50;99.90
15554;DHT22;7878;44.632;10.942;2023-07-13T15:44:42;31.50;99.90
15554;DHT22;7878;44.632;10.942;2023-07-13T15:47:11;31.50;99.90
15554;DHT22;7878;44.632;10.942;2023-07-13T15:49:38;31.50;99.90
15554;DHT22;7878;44.632;10.942;2023-07-13T15:52:05;31.50;99.90
15554;DHT22;7878;44.632;10.942;2023-07-13T15:54:31;31.50;99.90
15554;DHT22;7878;44.632;10.942;2023-07-13T15:57:00;31.50;99.90
15554;DHT22;7878;44.632;10.942;2023-07-13T15:59:26;31.50;99.90
15554;DHT22;7878;44.632;10.942;2023-07-13T16:01:52;31.50;99.90
15554;DHT22;7878;44.632;10.942;2023-07-13T16:04:18;31.50;99.90
15554;DHT22;7878;44.632;10.942;2023-07-13T16:06:45;31.60;99.90
15554;DHT22;7878;44.632;10.942;2023-07-13T16:09:22;31.50;99.90
15554;DHT22;7878;44.632;10.942;2023-07-13T16:11:49;31.50;99.90
15554;DHT22;7878;44.632;10.942;2023-07-13T16:14:16;31.60;99.90
15554;DHT22;7878;44.632;10.942;2023-07-13T16:16:42;31.60;99.90
15554;DHT22;7878;44.632;10.942;2023-07-13T16:19:10;31.60;99.90
15554;DHT22;7878;44.632;10.942;2023-07-13T16:21:43;31.60;99.90
15554;DHT22;7878;44.632;10.942;2023-07-13T16:24:19;31.50;99.90
15554;DHT22;7878;44.632;10.942;2023-07-13T16:26:46;31.50;99.90
15554;DHT22;7878;44.632;10.942;2023-07-13T16:29:24;31.50;99.90
15554;DHT22;7878;44.632;10.942;2023-07-13T16:32:11;31.50;99.90
15554;DHT22;7878;44.632;10.942;2023-07-13T16:34:38;31.60;99.90